createdAt,value
2017-09-15T00:00:14.733Z,93.36
2017-09-15T00:02:50.085Z,93.60
2017-09-15T00:05:24.885Z,93.70
2017-09-15T00:08:00.018Z,93.78
2017-09-15T00:10:34.792Z,93.82
2017-09-15T00:13:09.544Z,93.65
2017-09-15T00:15:44.306Z,93.47
2017-09-15T00:18:19.090Z,93.47
2017-09-15T00:20:53.988Z,93.61
2017-09-15T00:23:29.604Z,93.67
2017-09-15T00:26:04.560Z,93.67
2017-09-15T00:28:39.336Z,93.65
2017-09-15T00:31:14.092Z,93.45
2017-09-15T00:33:48.891Z,93.11
2017-09-15T00:36:23.477Z,93.08
2017-09-15T00:38:58.071Z,93.12
2017-09-15T00:41:32.752Z,93.40
2017-09-15T00:44:07.365Z,93.42
2017-09-15T00:46:42.064Z,93.21
2017-09-15T00:49:16.656Z,93.16
2017-09-15T00:51:50.921Z,93.36
2017-09-15T00:54:25.712Z,93.52
2017-09-15T00:57:00.401Z,93.45
2017-09-15T00:59:34.896Z,93.40
2017-09-15T01:02:09.380Z,93.43
2017-09-15T01:04:44.128Z,93.51
2017-09-15T01:07:18.689Z,93.39
2017-09-15T01:09:52.965Z,93.37
2017-09-15T01:12:27.426Z,93.47
2017-09-15T01:15:03.420Z,93.54
2017-09-15T01:17:37.692Z,93.57
2017-09-15T01:20:12.760Z,93.56
2017-09-15T01:22:48.009Z,93.64
2017-09-15T01:25:22.728Z,93.75
2017-09-15T01:27:57.318Z,93.81
2017-09-15T01:30:32.068Z,93.88
2017-09-15T01:33:06.828Z,93.84
2017-09-15T01:35:41.568Z,93.92
2017-09-15T01:38:16.409Z,93.86
2017-09-15T01:40:51.232Z,93.87
2017-09-15T01:43:25.853Z,93.95
2017-09-15T01:46:00.665Z,94.02
2017-09-15T01:48:35.393Z,94.09
2017-09-15T01:51:10.089Z,93.94
2017-09-15T01:53:44.918Z,94.04
2017-09-15T01:56:19.845Z,94.11
2017-09-15T01:58:54.605Z,94.15
2017-09-15T02:01:29.199Z,94.07
2017-09-15T02:04:03.560Z,94.11
2017-09-15T02:06:38.589Z,94.27
2017-09-15T02:09:13.336Z,94.32
2017-09-15T02:11:48.189Z,94.41
2017-09-15T02:14:22.915Z,94.52
2017-09-15T02:16:57.817Z,94.65
2017-09-15T02:19:32.667Z,94.72
2017-09-15T02:22:07.356Z,94.73
2017-09-15T02:24:42.116Z,94.75
2017-09-15T02:27:16.904Z,94.77
2017-09-15T02:29:51.833Z,94.83
2017-09-15T02:32:26.465Z,94.84
2017-09-15T02:35:01.175Z,94.90
2017-09-15T02:37:35.897Z,94.86
2017-09-15T02:40:10.757Z,94.98
2017-09-15T02:42:45.784Z,94.95
2017-09-15T02:45:20.522Z,94.92
2017-09-15T02:47:55.187Z,95.09
2017-09-15T02:50:29.970Z,95.27
2017-09-15T02:53:04.760Z,95.29
2017-09-15T02:55:39.637Z,95.72
2017-09-15T02:58:14.310Z,95.77
2017-09-15T03:00:49.422Z,95.52
2017-09-15T03:03:24.330Z,95.45
2017-09-15T03:05:59.150Z,95.50
2017-09-15T03:08:33.949Z,95.54
2017-09-15T03:11:08.642Z,95.68
2017-09-15T03:13:43.655Z,95.87
2017-09-15T03:16:18.217Z,95.74
2017-09-15T03:18:52.918Z,96.02
2017-09-15T03:21:27.450Z,95.95
2017-09-15T03:24:02.204Z,95.77
2017-09-15T03:26:36.881Z,95.91
2017-09-15T03:29:11.711Z,95.87
2017-09-15T03:31:46.572Z,95.93
2017-09-15T03:34:20.976Z,95.71
2017-09-15T03:36:56.031Z,95.97
2017-09-15T03:39:30.943Z,96.11
2017-09-15T03:42:05.870Z,95.89
2017-09-15T03:44:41.567Z,95.98
2017-09-15T03:47:16.752Z,95.98
2017-09-15T03:49:51.680Z,95.84
2017-09-15T03:52:26.719Z,95.92
2017-09-15T03:55:01.598Z,96.09
2017-09-15T03:57:36.567Z,96.07
2017-09-15T04:00:11.372Z,96.11
2017-09-15T04:02:46.288Z,96.23
2017-09-15T04:05:21.135Z,96.29
2017-09-15T04:07:55.789Z,96.53
2017-09-15T04:10:30.854Z,96.47
2017-09-15T04:13:05.564Z,96.87
2017-09-15T04:15:40.386Z,96.96
2017-09-15T04:18:15.235Z,96.58
2017-09-15T04:20:50.152Z,96.37
2017-09-15T04:23:24.888Z,95.40
2017-09-15T04:25:59.607Z,94.96
2017-09-15T04:28:34.198Z,95.05
2017-09-15T04:31:09.213Z,95.34
2017-09-15T04:33:43.983Z,95.65
2017-09-15T04:36:18.928Z,95.32
2017-09-15T04:38:53.552Z,95.17
2017-09-15T04:41:28.280Z,95.38
2017-09-15T04:44:03.314Z,95.62
2017-09-15T04:46:38.070Z,95.42
2017-09-15T04:49:13.182Z,95.22
2017-09-15T04:51:47.949Z,95.50
2017-09-15T04:54:22.883Z,96.17
2017-09-15T04:56:58.006Z,96.65
2017-09-15T04:59:32.943Z,96.06
2017-09-15T05:02:07.903Z,96.21
2017-09-15T05:04:42.724Z,94.80
2017-09-15T05:07:17.450Z,95.01
2017-09-15T05:09:52.427Z,95.43
2017-09-15T05:12:26.773Z,94.83
2017-09-15T05:15:01.843Z,94.72
2017-09-15T05:17:36.668Z,95.34
2017-09-15T05:20:11.519Z,95.27
2017-09-15T05:22:46.367Z,95.08
2017-09-15T05:25:20.717Z,95.30
2017-09-15T05:27:55.785Z,95.47
2017-09-15T05:30:30.471Z,95.71
2017-09-15T05:33:05.210Z,96.07
2017-09-15T05:35:40.068Z,95.11
2017-09-15T05:38:14.792Z,94.94
2017-09-15T05:40:49.072Z,94.87
2017-09-15T05:43:24.055Z,94.71
2017-09-15T05:45:58.790Z,94.28
2017-09-15T05:48:33.701Z,94.77
2017-09-15T05:51:08.388Z,94.45
2017-09-15T05:53:43.091Z,94.43
2017-09-15T05:56:18.027Z,94.39
2017-09-15T05:58:52.890Z,94.73
2017-09-15T06:01:27.786Z,94.49
2017-09-15T06:04:02.704Z,94.86
2017-09-15T06:06:37.635Z,93.98
2017-09-15T06:09:12.238Z,93.75
2017-09-15T06:11:47.139Z,93.25
2017-09-15T06:14:22.168Z,92.87
2017-09-15T06:16:57.079Z,93.41
2017-09-15T06:19:31.701Z,92.44
2017-09-15T06:22:06.519Z,91.76
2017-09-15T06:24:41.343Z,91.80
2017-09-15T06:27:16.204Z,90.95
2017-09-15T06:29:51.257Z,90.55
2017-09-15T06:32:25.955Z,90.44
2017-09-15T06:35:00.772Z,90.52
2017-09-15T06:37:35.500Z,89.35
2017-09-15T06:40:10.062Z,89.20
2017-09-15T06:42:44.832Z,88.75
2017-09-15T06:45:19.557Z,89.25
2017-09-15T06:47:54.288Z,88.96
2017-09-15T06:50:29.215Z,87.81
2017-09-15T06:53:03.940Z,88.33
2017-09-15T06:55:38.752Z,87.60
2017-09-15T06:58:13.695Z,86.87
2017-09-15T07:00:48.455Z,86.15
2017-09-15T07:03:23.165Z,86.60
2017-09-15T07:05:57.768Z,86.34
2017-09-15T07:08:32.802Z,85.23
2017-09-15T07:11:07.690Z,84.67
2017-09-15T07:13:42.299Z,83.84
2017-09-15T07:16:17.180Z,84.32
2017-09-15T07:18:52.775Z,84.99
2017-09-15T07:21:27.555Z,84.56
2017-09-15T07:24:02.279Z,83.25
2017-09-15T07:26:37.201Z,82.58
2017-09-15T07:29:12.010Z,81.56
2017-09-15T07:31:46.715Z,81.08
2017-09-15T07:34:21.415Z,80.93
2017-09-15T07:36:56.375Z,81.52
2017-09-15T07:39:32.218Z,81.11
2017-09-15T07:42:06.938Z,81.98
2017-09-15T07:44:41.752Z,81.85
2017-09-15T07:47:16.439Z,79.90
2017-09-15T07:49:51.339Z,81.13
2017-09-15T07:52:26.241Z,80.87
2017-09-15T07:55:01.211Z,80.36
2017-09-15T07:57:36.410Z,77.77
2017-09-15T08:00:11.463Z,77.87
2017-09-15T08:02:46.363Z,78.63
2017-09-15T08:05:21.279Z,79.58
2017-09-15T08:07:55.949Z,79.41
2017-09-15T08:10:30.530Z,79.69
2017-09-15T08:13:05.418Z,79.99
2017-09-15T08:15:39.907Z,80.87
2017-09-15T08:18:15.016Z,80.95
2017-09-15T08:20:49.915Z,81.23
2017-09-15T08:23:25.028Z,81.52
2017-09-15T08:25:59.966Z,82.04
2017-09-15T08:28:34.951Z,82.30
2017-09-15T08:31:09.840Z,82.33
2017-09-15T08:33:44.718Z,82.62
2017-09-15T08:36:19.539Z,81.91
2017-09-15T08:38:54.329Z,80.83
2017-09-15T08:41:29.299Z,81.27
2017-09-15T08:44:04.168Z,81.40
2017-09-15T08:46:38.833Z,81.53
2017-09-15T08:49:13.667Z,81.61
2017-09-15T08:51:48.650Z,82.08
2017-09-15T08:54:23.459Z,81.47
2017-09-15T08:56:58.495Z,81.81
2017-09-15T08:59:33.433Z,81.62
2017-09-15T09:02:08.257Z,80.82
2017-09-15T09:04:42.878Z,80.87
2017-09-15T09:07:17.983Z,81.08
2017-09-15T09:09:52.913Z,81.23
2017-09-15T09:12:27.635Z,80.38
2017-09-15T09:15:02.607Z,79.24
2017-09-15T09:17:37.451Z,78.92
2017-09-15T09:20:12.139Z,75.69
2017-09-15T09:22:46.861Z,75.25
2017-09-15T09:25:21.699Z,74.38
2017-09-15T09:27:56.467Z,72.68
2017-09-15T09:30:31.080Z,73.21
2017-09-15T09:33:05.788Z,73.99
2017-09-15T09:35:40.602Z,73.56
2017-09-15T09:38:15.226Z,73.41
2017-09-15T09:40:49.947Z,73.75
2017-09-15T09:43:24.888Z,73.62
2017-09-15T09:45:59.671Z,74.21
2017-09-15T09:48:34.383Z,74.03
2017-09-15T09:51:09.581Z,74.16
2017-09-15T09:53:44.183Z,75.66
2017-09-15T09:56:19.371Z,75.85
2017-09-15T09:58:53.804Z,75.46
2017-09-15T10:01:28.723Z,75.06
2017-09-15T10:04:03.652Z,75.67
2017-09-15T10:06:38.283Z,75.83
2017-09-15T10:09:12.967Z,74.65
2017-09-15T10:11:47.987Z,75.59
2017-09-15T10:14:22.713Z,76.79
2017-09-15T10:16:57.519Z,75.22
2017-09-15T10:19:32.833Z,73.01
2017-09-15T10:22:07.976Z,71.94
2017-09-15T10:24:43.112Z,71.24
2017-09-15T10:27:18.028Z,71.43
2017-09-15T10:29:53.063Z,69.68
2017-09-15T10:32:27.764Z,69.12
2017-09-15T10:35:02.565Z,69.06
2017-09-15T10:37:37.387Z,68.65
2017-09-15T10:40:12.176Z,68.80
2017-09-15T10:42:46.677Z,69.65
2017-09-15T10:45:21.711Z,67.63
2017-09-15T10:47:56.621Z,66.30
2017-09-15T10:50:31.519Z,63.87
2017-09-15T10:53:06.422Z,64.60
2017-09-15T10:55:41.411Z,61.46
2017-09-15T10:58:21.807Z,60.60
2017-09-15T11:00:57.161Z,62.71
2017-09-15T11:03:31.931Z,64.64
2017-09-15T11:06:06.595Z,64.49
2017-09-15T11:08:41.535Z,63.65
2017-09-15T11:11:16.433Z,63.69
2017-09-15T11:13:51.961Z,63.25
2017-09-15T11:16:27.107Z,64.78
2017-09-15T11:19:02.192Z,65.22
2017-09-15T11:21:36.920Z,66.40
2017-09-15T11:24:12.087Z,66.13
2017-09-15T11:26:46.794Z,66.69
2017-09-15T11:29:21.926Z,66.53
2017-09-15T11:31:56.841Z,64.31
2017-09-15T11:34:31.570Z,63.56
2017-09-15T11:37:06.303Z,61.83
2017-09-15T11:39:41.094Z,63.34
2017-09-15T11:42:16.050Z,63.37
2017-09-15T11:44:51.111Z,61.99
2017-09-15T11:47:26.013Z,61.81
2017-09-15T11:50:00.911Z,61.19
2017-09-15T11:52:35.823Z,60.06
2017-09-15T11:55:11.003Z,59.21
2017-09-15T11:57:46.211Z,58.27
2017-09-15T12:00:21.232Z,58.11
2017-09-15T12:02:55.738Z,57.91
2017-09-15T12:05:30.888Z,59.57
2017-09-15T12:08:05.341Z,61.10
2017-09-15T12:10:40.267Z,61.77
2017-09-15T12:13:15.099Z,62.66
2017-09-15T12:15:49.961Z,64.97
2017-09-15T12:18:24.776Z,65.41
2017-09-15T12:20:59.675Z,66.19
2017-09-15T12:23:34.271Z,65.06
2017-09-15T12:26:09.403Z,66.09
2017-09-15T12:28:44.199Z,67.79
2017-09-15T12:31:19.337Z,66.96
2017-09-15T12:33:54.449Z,67.48
2017-09-15T12:36:29.284Z,65.69
2017-09-15T12:39:03.758Z,66.69
2017-09-15T12:41:38.616Z,64.24
2017-09-15T12:44:13.217Z,63.75
2017-09-15T12:46:47.858Z,65.61
2017-09-15T12:49:22.479Z,65.46
2017-09-15T12:51:57.697Z,65.77
2017-09-15T12:54:32.699Z,65.11
2017-09-15T12:57:07.718Z,64.37
2017-09-15T12:59:42.813Z,64.68
2017-09-15T13:02:17.574Z,62.18
2017-09-15T13:04:52.215Z,61.33
2017-09-15T13:07:26.922Z,60.38
2017-09-15T13:10:01.675Z,61.05
2017-09-15T13:12:36.879Z,59.95
2017-09-15T13:15:11.406Z,60.39
2017-09-15T13:17:46.104Z,60.92
2017-09-15T13:20:20.724Z,60.33
2017-09-15T13:22:55.533Z,61.37
2017-09-15T13:25:30.551Z,61.61
2017-09-15T13:28:05.551Z,62.38
2017-09-15T13:30:39.662Z,61.77
2017-09-15T13:33:14.800Z,62.86
2017-09-15T13:35:49.668Z,64.45
2017-09-15T13:38:24.607Z,64.27
2017-09-15T13:40:59.360Z,64.16
2017-09-15T13:43:34.235Z,65.06
2017-09-15T13:46:08.612Z,67.66
2017-09-15T13:48:43.314Z,66.56
2017-09-15T13:51:18.035Z,67.17
2017-09-15T13:53:52.880Z,69.80
2017-09-15T13:56:27.600Z,71.79
2017-09-15T13:59:02.432Z,73.26
2017-09-15T14:01:38.056Z,73.03
2017-09-15T14:04:12.863Z,74.69
2017-09-15T14:06:47.461Z,73.52
2017-09-15T14:09:22.180Z,70.47
2017-09-15T14:11:57.069Z,71.25
2017-09-15T14:14:31.795Z,71.26
2017-09-15T14:17:06.332Z,71.76
2017-09-15T14:19:40.935Z,72.54
2017-09-15T14:22:15.736Z,74.40
2017-09-15T14:24:50.639Z,74.35
2017-09-15T14:27:25.515Z,75.05
2017-09-15T14:30:09.162Z,74.81
2017-09-15T14:32:43.875Z,71.86
2017-09-15T14:35:19.430Z,73.87
2017-09-15T14:37:53.970Z,75.20
2017-09-15T14:40:28.637Z,75.09
2017-09-15T14:43:03.449Z,74.62
2017-09-15T14:45:38.045Z,72.85
2017-09-15T14:48:12.663Z,73.44
2017-09-15T14:50:47.141Z,70.45
2017-09-15T14:53:21.995Z,71.13
2017-09-15T14:55:56.819Z,70.25
2017-09-15T14:58:31.639Z,70.41
2017-09-15T15:01:06.462Z,69.93
2017-09-15T15:03:41.194Z,70.24
2017-09-15T15:06:16.989Z,71.18
2017-09-15T15:08:52.110Z,69.24
2017-09-15T15:11:27.079Z,69.29
2017-09-15T15:14:02.294Z,69.03
2017-09-15T15:16:37.500Z,68.26
2017-09-15T15:19:12.261Z,69.55
2017-09-15T15:21:47.026Z,69.73
2017-09-15T15:24:21.824Z,67.70
2017-09-15T15:26:56.523Z,68.42
2017-09-15T15:29:31.137Z,67.16
2017-09-15T15:32:05.783Z,66.61
2017-09-15T15:34:41.256Z,67.62
2017-09-15T15:37:16.070Z,68.80
2017-09-15T15:39:51.082Z,68.18
2017-09-15T15:42:25.902Z,66.76
2017-09-15T15:45:00.754Z,67.25
2017-09-15T15:47:35.617Z,68.49
2017-09-15T15:50:10.131Z,67.99
2017-09-15T15:52:44.862Z,66.79
2017-09-15T15:55:19.957Z,67.31
2017-09-15T15:57:54.700Z,66.83
2017-09-15T16:00:30.581Z,66.18
2017-09-15T16:03:05.287Z,67.07
2017-09-15T16:05:40.192Z,67.45
2017-09-15T16:08:14.639Z,67.80
2017-09-15T16:10:49.396Z,68.08
2017-09-15T16:13:24.091Z,67.51
2017-09-15T16:15:58.721Z,66.56
2017-09-15T16:18:33.339Z,66.86
2017-09-15T16:21:08.068Z,66.63
2017-09-15T16:23:43.647Z,65.73
2017-09-15T16:26:18.155Z,66.32
2017-09-15T16:28:52.817Z,65.89
2017-09-15T16:31:27.251Z,65.18
2017-09-15T16:34:01.763Z,66.23
2017-09-15T16:36:37.530Z,65.96
2017-09-15T16:39:17.625Z,65.70
2017-09-15T16:41:58.277Z,67.14
2017-09-15T16:44:38.889Z,67.09
2017-09-15T16:47:19.215Z,67.92
2017-09-15T16:49:52.847Z,67.78
2017-09-15T16:52:28.057Z,68.55
2017-09-15T16:55:02.859Z,69.22
2017-09-15T16:57:37.564Z,68.44
2017-09-15T17:00:12.268Z,69.13
2017-09-15T17:02:46.927Z,67.08
2017-09-15T17:05:21.464Z,67.05
2017-09-15T17:07:56.468Z,67.83
2017-09-15T17:10:31.168Z,70.02
2017-09-15T17:13:06.175Z,71.53
2017-09-15T17:15:40.983Z,72.56
2017-09-15T17:18:15.906Z,73.25
2017-09-15T17:20:50.709Z,74.34
2017-09-15T17:23:25.513Z,74.59
2017-09-15T17:26:00.190Z,74.35
2017-09-15T17:28:35.042Z,74.63
2017-09-15T17:31:10.732Z,74.71
2017-09-15T17:33:45.536Z,74.69
2017-09-15T17:36:20.153Z,75.12
2017-09-15T17:38:55.037Z,74.74
2017-09-15T17:41:29.551Z,75.01
2017-09-15T17:44:04.375Z,75.52
2017-09-15T17:46:38.793Z,75.83
2017-09-15T17:49:13.703Z,75.79
2017-09-15T17:51:49.129Z,76.21
2017-09-15T17:54:23.759Z,76.81
2017-09-15T17:56:59.341Z,77.44
2017-09-15T17:59:34.165Z,77.87
2017-09-15T18:02:08.707Z,78.50
2017-09-15T18:04:43.416Z,78.51
2017-09-15T18:07:18.315Z,78.42
2017-09-15T18:09:53.422Z,79.63
2017-09-15T18:12:28.395Z,80.06
2017-09-15T18:15:03.866Z,80.38
2017-09-15T18:17:38.806Z,81.05
2017-09-15T18:20:13.576Z,80.96
2017-09-15T18:22:48.677Z,81.63
2017-09-15T18:25:23.566Z,81.56
2017-09-15T18:27:58.389Z,81.31
2017-09-15T18:30:33.025Z,81.60
2017-09-15T18:33:07.907Z,81.43
2017-09-15T18:35:42.844Z,81.94
2017-09-15T18:38:17.651Z,82.53
2017-09-15T18:40:52.200Z,82.58
2017-09-15T18:43:26.946Z,82.87
2017-09-15T18:46:01.570Z,83.38
2017-09-15T18:48:37.250Z,84.53
2017-09-15T18:51:11.659Z,84.37
2017-09-15T18:53:46.486Z,85.23
2017-09-15T18:56:21.175Z,84.86
2017-09-15T18:58:55.845Z,84.56
2017-09-15T19:01:30.402Z,85.51
2017-09-15T19:04:05.139Z,85.84
2017-09-15T19:06:39.799Z,85.60
2017-09-15T19:09:14.315Z,84.78
2017-09-15T19:11:49.098Z,83.98
2017-09-15T19:14:24.451Z,84.21
2017-09-15T19:16:59.442Z,84.23
2017-09-15T19:19:34.331Z,84.42
2017-09-15T19:22:09.530Z,84.76
2017-09-15T19:24:44.539Z,84.73
2017-09-15T19:27:19.463Z,84.45
2017-09-15T19:29:54.320Z,84.18
2017-09-15T19:32:29.239Z,84.28
2017-09-15T19:35:03.958Z,83.60
2017-09-15T19:37:38.791Z,83.40
2017-09-15T19:40:13.351Z,83.35
2017-09-15T19:42:48.236Z,82.65
2017-09-15T19:45:22.973Z,82.21
2017-09-15T19:47:57.684Z,81.60
2017-09-15T19:50:32.317Z,83.84
2017-09-15T19:53:07.163Z,82.65
2017-09-15T19:55:41.775Z,79.50
2017-09-15T19:58:16.633Z,80.17
2017-09-15T20:00:51.231Z,77.61
2017-09-15T20:03:25.956Z,79.02
2017-09-15T20:06:00.798Z,76.88
2017-09-15T20:08:35.583Z,78.44
2017-09-15T20:11:10.372Z,78.48
2017-09-15T20:13:45.055Z,77.76
2017-09-15T20:16:19.863Z,78.46
2017-09-15T20:18:54.775Z,78.36
2017-09-15T20:21:29.470Z,76.72
2017-09-15T20:24:04.184Z,76.45
2017-09-15T20:26:38.743Z,75.98
2017-09-15T20:29:13.438Z,77.63
2017-09-15T20:31:48.361Z,76.85
2017-09-15T20:34:23.299Z,77.35
2017-09-15T20:36:57.923Z,78.79
2017-09-15T20:39:32.797Z,80.90
2017-09-15T20:42:07.768Z,81.40
2017-09-15T20:44:42.533Z,81.73
2017-09-15T20:47:17.518Z,82.50
2017-09-15T20:49:52.131Z,82.39
2017-09-15T20:52:27.063Z,82.54
2017-09-15T20:55:01.912Z,82.21
2017-09-15T20:57:36.600Z,82.25
2017-09-15T21:00:11.123Z,82.04
2017-09-15T21:02:46.050Z,82.33
2017-09-15T21:05:20.815Z,82.22
2017-09-15T21:07:55.444Z,82.19
2017-09-15T21:10:29.967Z,83.06
2017-09-15T21:13:04.542Z,83.30
2017-09-15T21:15:39.216Z,83.39
2017-09-15T21:18:13.928Z,83.44
2017-09-15T21:20:48.655Z,83.83
2017-09-15T21:23:23.395Z,84.31
2017-09-15T21:25:58.100Z,84.27
2017-09-15T21:28:32.923Z,84.09
2017-09-15T21:31:07.981Z,85.02
2017-09-15T21:33:42.540Z,84.95
2017-09-15T21:36:17.452Z,85.01
2017-09-15T21:38:52.115Z,84.60
2017-09-15T21:41:27.199Z,84.32
2017-09-15T21:44:02.819Z,84.83
2017-09-15T21:46:38.654Z,84.67
2017-09-15T21:49:13.238Z,84.47
2017-09-15T21:51:47.991Z,84.79
2017-09-15T21:54:22.675Z,85.04
2017-09-15T21:56:57.755Z,85.37
2017-09-15T21:59:32.459Z,85.50
2017-09-15T22:02:07.283Z,85.53
2017-09-15T22:04:42.377Z,85.57
2017-09-15T22:07:17.258Z,85.79
2017-09-15T22:09:52.099Z,86.19
2017-09-15T22:12:26.972Z,86.11
2017-09-15T22:15:01.760Z,86.02
2017-09-15T22:17:36.269Z,85.85
2017-09-15T22:20:10.988Z,86.01
2017-09-15T22:22:45.994Z,86.04
2017-09-15T22:25:20.653Z,86.71
2017-09-15T22:27:55.202Z,86.75
2017-09-15T22:30:30.219Z,86.98
2017-09-15T22:33:04.724Z,87.65
2017-09-15T22:35:39.680Z,87.92
2017-09-15T22:38:14.666Z,87.64
2017-09-15T22:40:49.525Z,87.43
2017-09-15T22:43:24.374Z,87.48
2017-09-15T22:46:01.721Z,87.40
2017-09-15T22:48:36.119Z,87.34
2017-09-15T22:51:10.788Z,88.01
2017-09-15T22:53:45.660Z,88.21
2017-09-15T22:56:20.523Z,87.78
2017-09-15T22:58:55.446Z,88.30
2017-09-15T23:01:30.289Z,88.40
2017-09-15T23:04:05.233Z,88.32
2017-09-15T23:06:40.043Z,88.39
2017-09-15T23:09:14.786Z,88.61
2017-09-15T23:11:49.718Z,89.08
2017-09-15T23:14:24.722Z,89.09
2017-09-15T23:16:59.671Z,89.04
2017-09-15T23:19:34.531Z,89.18
2017-09-15T23:22:09.360Z,89.21
2017-09-15T23:24:44.362Z,88.95
2017-09-15T23:27:19.158Z,89.04
2017-09-15T23:29:54.196Z,89.08
2017-09-15T23:32:29.097Z,89.23
2017-09-15T23:35:03.847Z,89.35
2017-09-15T23:37:38.526Z,89.34
2017-09-15T23:40:13.184Z,89.16
2017-09-15T23:42:48.179Z,89.57
2017-09-15T23:45:23.000Z,90.31
2017-09-15T23:47:57.864Z,90.67
2017-09-15T23:50:32.709Z,90.78
2017-09-15T23:53:07.719Z,91.12
2017-09-15T23:55:42.630Z,91.34
2017-09-15T23:58:17.459Z,90.69
